createdAt,value
2019-02-24T00:01:25.782Z,7.72
2019-02-24T00:03:56.120Z,7.65
2019-02-24T00:06:24.908Z,7.92
2019-02-24T00:08:53.699Z,8.40
2019-02-24T00:11:22.476Z,8.43
2019-02-24T00:13:51.256Z,9.35
2019-02-24T00:16:20.036Z,7.58
2019-02-24T00:18:48.881Z,8.25
2019-02-24T00:21:17.643Z,7.58
2019-02-24T00:23:46.437Z,8.68
2019-02-24T00:26:15.200Z,8.10
2019-02-24T00:28:43.984Z,7.95
2019-02-24T00:31:12.817Z,6.60
2019-02-24T00:33:41.600Z,7.20
2019-02-24T00:36:10.411Z,7.67
2019-02-24T00:38:39.200Z,8.13
2019-02-24T00:41:07.953Z,8.50
2019-02-24T00:43:36.716Z,8.40
2019-02-24T00:46:05.502Z,7.58
2019-02-24T00:48:34.284Z,8.15
2019-02-24T00:51:03.128Z,7.28
2019-02-24T00:53:31.981Z,7.45
2019-02-24T00:56:00.797Z,7.70
2019-02-24T00:58:29.613Z,8.63
2019-02-24T01:00:58.465Z,8.55
2019-02-24T01:03:30.371Z,7.65
2019-02-24T01:05:59.150Z,7.78
2019-02-24T01:08:28.000Z,8.10
2019-02-24T01:10:57.000Z,8.88
2019-02-24T01:13:25.803Z,8.25
2019-02-24T01:15:55.865Z,7.30
2019-02-24T01:18:27.677Z,7.72
2019-02-24T01:20:56.493Z,8.68
2019-02-24T01:23:25.263Z,7.50
2019-02-24T01:25:54.030Z,7.47
2019-02-24T01:28:25.255Z,7.50
2019-02-24T01:30:53.389Z,7.33
2019-02-24T01:33:22.264Z,8.78
2019-02-24T01:35:51.100Z,7.55
2019-02-24T01:38:25.756Z,7.03
2019-02-24T01:40:55.338Z,7.40
2019-02-24T01:43:24.227Z,7.12
2019-02-24T01:45:53.042Z,6.65
2019-02-24T01:48:21.816Z,7.22
2019-02-24T01:50:50.629Z,7.58
2019-02-24T01:53:19.445Z,8.00
2019-02-24T01:55:48.404Z,7.55
2019-02-24T01:58:17.201Z,6.75
2019-02-24T02:00:45.971Z,7.15
2019-02-24T02:03:14.787Z,7.45
2019-02-24T02:05:43.574Z,7.33
2019-02-24T02:08:12.393Z,7.03
2019-02-24T02:10:41.651Z,5.95
2019-02-24T02:13:10.465Z,7.42
2019-02-24T02:15:39.401Z,7.70
2019-02-24T02:18:08.254Z,5.90
2019-02-24T02:20:37.061Z,7.65
2019-02-24T02:23:05.963Z,6.92
2019-02-24T02:25:34.844Z,6.37
2019-02-24T02:28:06.735Z,7.15
2019-02-24T02:30:35.583Z,7.15
2019-02-24T02:33:04.337Z,5.95
2019-02-24T02:35:33.161Z,6.47
2019-02-24T02:38:01.945Z,6.40
2019-02-24T02:40:30.824Z,6.90
2019-02-24T02:42:59.609Z,6.22
2019-02-24T02:45:28.420Z,5.50
2019-02-24T02:47:57.212Z,6.08
2019-02-24T02:50:26.082Z,6.45
2019-02-24T02:52:54.961Z,6.65
2019-02-24T02:55:24.459Z,5.65
2019-02-24T02:57:53.350Z,6.42
2019-02-24T03:00:32.726Z,6.33
2019-02-24T03:03:01.703Z,6.28
2019-02-24T03:05:33.705Z,6.47
2019-02-24T03:08:06.052Z,6.17
2019-02-24T03:10:34.847Z,6.10
2019-02-24T03:13:03.620Z,5.87
2019-02-24T03:15:32.473Z,5.95
2019-02-24T03:18:01.233Z,6.30
2019-02-24T03:20:30.196Z,6.60
2019-02-24T03:22:58.980Z,6.10
2019-02-24T03:25:27.770Z,5.00
2019-02-24T03:27:56.584Z,5.78
2019-02-24T03:30:25.387Z,5.80
2019-02-24T03:32:54.174Z,5.80
2019-02-24T03:35:26.102Z,6.58
2019-02-24T03:37:54.918Z,5.70
2019-02-24T03:40:23.865Z,5.62
2019-02-24T03:42:52.623Z,5.90
2019-02-24T03:45:21.595Z,5.20
2019-02-24T03:47:50.487Z,5.80
2019-02-24T03:50:19.282Z,5.45
2019-02-24T03:52:48.167Z,6.45
2019-02-24T03:55:17.002Z,4.97
2019-02-24T03:57:45.857Z,4.97
2019-02-24T04:00:20.118Z,4.53
2019-02-24T04:02:48.974Z,4.50
2019-02-24T04:05:18.429Z,4.60
2019-02-24T04:07:47.208Z,4.58
2019-02-24T04:10:16.030Z,4.90
2019-02-24T04:12:44.988Z,4.87
2019-02-24T04:15:13.912Z,4.42
2019-02-24T04:17:42.752Z,4.45
2019-02-24T04:20:11.585Z,4.83
2019-02-24T04:22:41.491Z,3.90
2019-02-24T04:25:10.306Z,4.83
2019-02-24T04:27:39.287Z,4.60
2019-02-24T04:30:11.265Z,4.62
2019-02-24T04:32:40.113Z,4.70
2019-02-24T04:35:08.940Z,4.80
2019-02-24T04:37:37.759Z,4.42
2019-02-24T04:40:06.987Z,4.70
2019-02-24T04:42:35.749Z,3.80
2019-02-24T04:45:04.735Z,4.55
2019-02-24T04:47:33.521Z,5.05
2019-02-24T04:50:02.287Z,3.80
2019-02-24T04:52:31.069Z,4.62
2019-02-24T04:54:59.831Z,5.00
2019-02-24T04:57:28.604Z,4.78
2019-02-24T04:59:57.359Z,5.75
2019-02-24T05:02:26.133Z,5.70
2019-02-24T05:04:54.912Z,5.55
2019-02-24T05:07:23.708Z,4.92
2019-02-24T05:09:52.509Z,4.92
2019-02-24T05:12:21.367Z,4.95
2019-02-24T05:14:50.206Z,4.78
2019-02-24T05:17:19.019Z,4.25
2019-02-24T05:19:47.866Z,4.37
2019-02-24T05:22:16.825Z,4.33
2019-02-24T05:24:45.589Z,3.50
2019-02-24T05:27:14.386Z,4.12
2019-02-24T05:29:46.248Z,5.08
2019-02-24T05:32:19.591Z,4.60
2019-02-24T05:34:48.434Z,4.65
2019-02-24T05:37:17.301Z,4.55
2019-02-24T05:39:46.085Z,4.47
2019-02-24T05:42:14.872Z,4.17
2019-02-24T05:44:43.805Z,4.17
2019-02-24T05:47:12.607Z,4.15
2019-02-24T05:49:41.389Z,4.37
2019-02-24T05:52:10.169Z,5.22
2019-02-24T05:54:38.960Z,4.67
2019-02-24T05:57:07.770Z,4.67
2019-02-24T05:59:36.567Z,4.65
2019-02-24T06:02:05.425Z,4.33
2019-02-24T06:04:34.316Z,4.20
2019-02-24T06:07:03.121Z,4.08
2019-02-24T06:09:32.044Z,3.70
2019-02-24T06:12:00.853Z,3.92
2019-02-24T06:14:29.696Z,3.80
2019-02-24T06:16:58.476Z,4.10
2019-02-24T06:19:27.266Z,4.35
2019-02-24T06:21:58.897Z,4.40
2019-02-24T06:24:27.704Z,4.78
2019-02-24T06:26:56.512Z,3.55
2019-02-24T06:29:25.459Z,4.60
2019-02-24T06:31:54.301Z,3.98
2019-02-24T06:34:23.257Z,4.47
2019-02-24T06:36:52.151Z,4.50
2019-02-24T06:39:21.054Z,4.10
2019-02-24T06:41:50.002Z,3.90
2019-02-24T06:44:18.829Z,4.20
2019-02-24T06:46:47.621Z,5.00
2019-02-24T06:49:16.455Z,4.90
2019-02-24T06:51:45.228Z,4.03
2019-02-24T06:54:22.321Z,4.30
2019-02-24T06:56:51.125Z,4.20
2019-02-24T06:59:26.012Z,4.92
2019-02-24T07:01:54.794Z,3.60
2019-02-24T07:04:23.748Z,4.53
2019-02-24T07:06:52.521Z,4.78
2019-02-24T07:09:21.469Z,4.05
2019-02-24T07:11:50.227Z,4.10
2019-02-24T07:14:19.107Z,4.00
2019-02-24T07:16:47.884Z,4.62
2019-02-24T07:19:16.675Z,4.42
2019-02-24T07:21:45.545Z,3.60
2019-02-24T07:24:14.317Z,4.15
2019-02-24T07:26:43.173Z,3.73
2019-02-24T07:29:11.986Z,2.90
2019-02-24T07:31:40.821Z,3.53
2019-02-24T07:34:09.649Z,2.83
2019-02-24T07:36:38.521Z,3.33
2019-02-24T07:39:07.608Z,3.20
2019-02-24T07:41:36.383Z,2.67
2019-02-24T07:44:05.232Z,2.80
2019-02-24T07:46:34.128Z,2.37
2019-02-24T07:49:03.069Z,2.70
2019-02-24T07:51:32.088Z,2.60
2019-02-24T07:54:01.184Z,3.90
2019-02-24T07:56:30.138Z,2.80
2019-02-24T07:58:59.550Z,2.57
2019-02-24T08:01:28.621Z,3.03
2019-02-24T08:03:57.612Z,4.10
2019-02-24T08:06:26.721Z,3.10
2019-02-24T08:09:05.096Z,3.20
2019-02-24T08:11:34.471Z,2.83
2019-02-24T08:14:03.615Z,3.00
2019-02-24T08:16:32.974Z,3.13
2019-02-24T08:19:02.182Z,2.77
2019-02-24T08:21:31.497Z,2.60
2019-02-24T08:24:07.012Z,2.50
2019-02-24T08:26:42.057Z,3.30
2019-02-24T08:29:11.873Z,2.70
2019-02-24T08:31:40.750Z,3.10
2019-02-24T08:34:09.623Z,3.50
2019-02-24T08:36:38.518Z,3.50
2019-02-24T08:39:07.443Z,5.37
2019-02-24T08:41:36.357Z,28.17
2019-02-24T08:44:05.565Z,24.00
2019-02-24T08:46:34.412Z,19.97
2019-02-24T08:49:03.310Z,7.50
2019-02-24T08:51:32.127Z,3.90
2019-02-24T08:54:00.913Z,4.80
2019-02-24T08:56:29.760Z,3.80
2019-02-24T08:58:58.537Z,4.90
2019-02-24T09:01:27.353Z,8.33
2019-02-24T09:03:56.201Z,7.83
2019-02-24T09:06:24.997Z,4.67
2019-02-24T09:08:53.937Z,4.00
2019-02-24T09:11:22.736Z,3.63
2019-02-24T09:13:51.654Z,3.60
2019-02-24T09:16:20.684Z,3.23
2019-02-24T09:18:49.546Z,3.10
2019-02-24T09:21:18.575Z,3.30
2019-02-24T09:23:47.509Z,3.17
2019-02-24T09:26:16.373Z,2.60
2019-02-24T09:28:45.185Z,2.03
2019-02-24T09:31:14.049Z,2.10
2019-02-24T09:33:42.927Z,2.17
2019-02-24T09:36:11.748Z,2.50
2019-02-24T09:38:40.537Z,2.53
2019-02-24T09:41:09.367Z,2.20
2019-02-24T09:43:38.164Z,2.10
2019-02-24T09:46:06.998Z,1.80
2019-02-24T09:48:36.076Z,2.27
2019-02-24T09:51:05.138Z,2.40
2019-02-24T09:53:33.928Z,2.47
2019-02-24T09:56:03.437Z,2.37
2019-02-24T09:58:32.286Z,2.23
2019-02-24T10:01:10.338Z,2.10
2019-02-24T10:03:32.159Z,1.80
2019-02-24T10:06:00.985Z,1.80
2019-02-24T10:08:29.795Z,2.47
2019-02-24T10:10:58.611Z,2.40
2019-02-24T10:13:27.410Z,2.20
2019-02-24T10:15:56.243Z,2.13
2019-02-24T10:18:25.069Z,2.13
2019-02-24T10:20:53.864Z,1.87
2019-02-24T10:23:22.666Z,2.03
2019-02-24T10:25:51.493Z,2.27
2019-02-24T10:28:20.438Z,2.03
2019-02-24T10:30:49.262Z,2.30
2019-02-24T10:33:18.619Z,1.93
2019-02-24T10:35:47.505Z,2.30
2019-02-24T10:38:16.358Z,1.90
2019-02-24T10:40:45.419Z,2.07
2019-02-24T10:43:14.247Z,2.07
2019-02-24T10:45:43.138Z,2.10
2019-02-24T10:48:14.221Z,1.90
2019-02-24T10:50:42.518Z,1.83
2019-02-24T10:53:11.650Z,2.07
2019-02-24T10:55:40.506Z,1.43
2019-02-24T10:58:09.337Z,1.80
2019-02-24T11:00:38.238Z,1.63
2019-02-24T11:03:07.121Z,2.53
2019-02-24T11:05:36.039Z,1.57
2019-02-24T11:08:04.930Z,1.50
2019-02-24T11:10:33.729Z,2.27
2019-02-24T11:13:02.573Z,1.97
2019-02-24T11:15:31.446Z,1.60
2019-02-24T11:18:01.544Z,1.53
2019-02-24T11:20:30.709Z,1.60
2019-02-24T11:22:59.567Z,1.57
2019-02-24T11:25:28.524Z,1.40
2019-02-24T11:27:57.390Z,1.53
2019-02-24T11:30:26.304Z,1.87
2019-02-24T11:32:55.130Z,1.70
2019-02-24T11:35:24.039Z,3.10
2019-02-24T11:37:53.059Z,2.70
2019-02-24T11:40:22.067Z,2.70
2019-02-24T11:42:50.882Z,2.97
2019-02-24T11:45:19.789Z,2.70
2019-02-24T11:47:48.623Z,2.90
2019-02-24T11:50:17.536Z,2.60
2019-02-24T11:52:46.354Z,2.33
2019-02-24T11:55:15.373Z,3.20
2019-02-24T11:57:44.188Z,3.00
2019-02-24T12:00:13.141Z,2.90
2019-02-24T12:02:42.127Z,2.93
2019-02-24T12:05:15.614Z,3.00
2019-02-24T12:07:44.440Z,3.50
2019-02-24T12:10:13.550Z,3.27
2019-02-24T12:12:42.425Z,3.60
2019-02-24T12:15:11.313Z,3.23
2019-02-24T12:17:40.177Z,3.20
2019-02-24T12:20:10.367Z,3.70
2019-02-24T12:22:39.300Z,3.93
2019-02-24T12:25:08.611Z,3.00
2019-02-24T12:27:37.520Z,3.03
2019-02-24T12:30:07.477Z,3.40
2019-02-24T12:32:36.423Z,3.57
2019-02-24T12:35:05.424Z,3.30
2019-02-24T12:37:34.301Z,3.87
2019-02-24T12:40:03.243Z,4.43
2019-02-24T12:42:32.085Z,4.27
2019-02-24T12:45:01.090Z,3.20
2019-02-24T12:47:29.890Z,3.50
2019-02-24T12:50:03.126Z,3.73
2019-02-24T12:52:29.350Z,3.40
2019-02-24T12:54:58.178Z,3.80
2019-02-24T12:57:26.989Z,4.10
2019-02-24T12:59:55.881Z,2.90
2019-02-24T13:02:24.684Z,2.33
2019-02-24T13:04:53.523Z,3.03
2019-02-24T13:07:22.330Z,4.20
2019-02-24T13:09:51.209Z,3.00
2019-02-24T13:12:20.133Z,3.80
2019-02-24T13:14:49.024Z,3.80
2019-02-24T13:17:17.908Z,3.53
2019-02-24T13:19:46.845Z,3.87
2019-02-24T13:22:15.706Z,4.03
2019-02-24T13:24:45.037Z,3.60
2019-02-24T13:27:13.952Z,4.00
2019-02-24T13:29:42.818Z,3.93
2019-02-24T13:32:14.843Z,4.23
2019-02-24T13:34:42.445Z,4.17
2019-02-24T13:37:11.320Z,3.40
2019-02-24T13:39:40.302Z,3.40
2019-02-24T13:42:09.265Z,3.70
2019-02-24T13:44:38.082Z,3.90
2019-02-24T13:47:06.966Z,3.83
2019-02-24T13:49:35.784Z,3.23
2019-02-24T13:52:04.721Z,3.80
2019-02-24T13:54:33.647Z,3.67
2019-02-24T13:57:02.530Z,3.43
2019-02-24T13:59:31.344Z,4.00
2019-02-24T14:02:01.971Z,4.07
2019-02-24T14:04:30.979Z,4.20
2019-02-24T14:07:01.999Z,3.90
2019-02-24T14:09:30.861Z,4.20
2019-02-24T14:11:59.851Z,3.73
2019-02-24T14:14:28.749Z,4.23
2019-02-24T14:16:57.577Z,4.40
2019-02-24T14:19:26.468Z,3.80
2019-02-24T14:21:55.274Z,4.30
2019-02-24T14:24:24.140Z,3.77
2019-02-24T14:26:52.971Z,4.10
2019-02-24T14:29:21.909Z,4.60
2019-02-24T14:31:50.718Z,4.70
2019-02-24T14:34:19.525Z,4.60
2019-02-24T14:36:48.401Z,4.37
2019-02-24T14:39:17.392Z,4.30
2019-02-24T14:41:46.233Z,5.50
2019-02-24T14:44:15.006Z,4.17
2019-02-24T14:46:43.842Z,4.40
2019-02-24T14:49:12.629Z,4.33
2019-02-24T14:51:41.440Z,4.80
2019-02-24T14:54:10.309Z,4.60
2019-02-24T14:56:39.174Z,4.90
2019-02-24T14:59:07.958Z,4.20
2019-02-24T15:01:36.778Z,4.60
2019-02-24T15:04:05.658Z,4.70
2019-02-24T15:06:34.542Z,4.70
2019-02-24T15:09:03.928Z,4.20
2019-02-24T15:11:32.756Z,5.30
2019-02-24T15:14:01.589Z,4.70
2019-02-24T15:16:32.234Z,5.10
2019-02-24T15:19:01.040Z,4.93
2019-02-24T15:21:29.860Z,5.53
2019-02-24T15:23:58.692Z,4.90
2019-02-24T15:26:29.268Z,5.03
2019-02-24T15:28:58.350Z,4.60
2019-02-24T15:31:27.334Z,5.03
2019-02-24T15:33:56.193Z,4.43
2019-02-24T15:36:25.037Z,5.30
2019-02-24T15:38:53.926Z,5.00
2019-02-24T15:41:29.558Z,5.00
2019-02-24T15:43:53.311Z,4.70
2019-02-24T15:46:22.121Z,4.93
2019-02-24T15:48:51.066Z,4.70
2019-02-24T15:51:20.043Z,4.17
2019-02-24T15:53:48.829Z,3.97
2019-02-24T15:56:17.694Z,4.23
2019-02-24T15:58:46.566Z,3.97
2019-02-24T16:01:15.403Z,3.60
2019-02-24T16:03:44.202Z,4.23
2019-02-24T16:06:13.074Z,4.10
2019-02-24T16:08:41.961Z,3.70
2019-02-24T16:11:10.777Z,3.80
2019-02-24T16:13:39.613Z,3.70
2019-02-24T16:16:08.404Z,4.10
2019-02-24T16:18:37.222Z,4.40
2019-02-24T16:21:06.006Z,5.77
2019-02-24T16:23:34.824Z,5.00
2019-02-24T16:26:03.709Z,4.43
2019-02-24T16:28:32.602Z,5.13
2019-02-24T16:31:01.396Z,4.90
2019-02-24T16:33:30.226Z,5.10
2019-02-24T16:35:59.125Z,5.83
2019-02-24T16:38:27.975Z,3.77
2019-02-24T16:40:57.399Z,3.80
2019-02-24T16:43:26.251Z,3.80
2019-02-24T16:45:55.040Z,4.67
2019-02-24T16:48:23.870Z,4.57
2019-02-24T16:50:52.922Z,3.70
2019-02-24T16:53:21.944Z,3.10
2019-02-24T16:55:50.827Z,3.47
2019-02-24T16:58:19.789Z,3.13
2019-02-24T17:00:48.763Z,3.00
2019-02-24T17:03:20.139Z,4.00
2019-02-24T17:05:48.277Z,3.77
2019-02-24T17:08:17.105Z,4.63
2019-02-24T17:10:45.944Z,4.07
2019-02-24T17:13:14.812Z,4.73
2019-02-24T17:15:43.605Z,4.40
2019-02-24T17:18:12.494Z,4.33
2019-02-24T17:20:41.307Z,4.33
2019-02-24T17:23:10.258Z,4.50
2019-02-24T17:25:39.141Z,4.13
2019-02-24T17:28:08.088Z,4.10
2019-02-24T17:30:37.032Z,5.30
2019-02-24T17:33:05.896Z,4.50
2019-02-24T17:35:34.682Z,4.50
2019-02-24T17:38:03.557Z,4.50
2019-02-24T17:40:32.438Z,4.30
2019-02-24T17:43:01.325Z,4.13
2019-02-24T17:45:30.185Z,4.47
2019-02-24T17:47:59.215Z,3.97
2019-02-24T17:50:28.090Z,4.33
2019-02-24T17:52:56.889Z,4.10
2019-02-24T17:55:25.700Z,4.60
2019-02-24T17:57:54.517Z,4.80
2019-02-24T18:00:31.642Z,4.40
2019-02-24T18:03:00.581Z,5.23
2019-02-24T18:05:29.369Z,4.70
2019-02-24T18:07:58.262Z,4.00
2019-02-24T18:10:27.273Z,4.40
2019-02-24T18:12:56.094Z,6.03
2019-02-24T18:15:24.976Z,4.10
2019-02-24T18:17:53.896Z,3.77
2019-02-24T18:20:25.018Z,4.40
2019-02-24T18:22:53.815Z,4.70
2019-02-24T18:25:22.684Z,4.90
2019-02-24T18:27:52.676Z,5.43
2019-02-24T18:30:22.568Z,4.50
2019-02-24T18:32:51.498Z,4.20
2019-02-24T18:35:20.374Z,4.50
2019-02-24T18:37:49.161Z,4.30
2019-02-24T18:40:18.094Z,4.30
2019-02-24T18:42:46.902Z,5.00
2019-02-24T18:45:15.996Z,4.00
2019-02-24T18:47:45.215Z,4.10
2019-02-24T18:50:14.240Z,4.17
2019-02-24T18:52:43.112Z,4.57
2019-02-24T18:55:12.084Z,4.20
2019-02-24T18:57:41.156Z,4.80
2019-02-24T19:00:12.490Z,4.83
2019-02-24T19:02:41.309Z,4.80
2019-02-24T19:05:10.446Z,4.70
2019-02-24T19:07:39.614Z,4.63
2019-02-24T19:10:10.216Z,4.30
2019-02-24T19:12:39.001Z,4.70
2019-02-24T19:15:09.938Z,4.63
2019-02-24T19:17:55.249Z,5.23
2019-02-24T19:20:24.231Z,4.80
2019-02-24T19:22:53.114Z,5.30
2019-02-24T19:25:22.034Z,4.70
2019-02-24T19:27:50.941Z,4.90
2019-02-24T19:30:19.970Z,4.50
2019-02-24T19:32:48.850Z,4.60
2019-02-24T19:35:17.855Z,5.40
2019-02-24T19:37:46.744Z,5.27
2019-02-24T19:40:16.629Z,5.37
2019-02-24T19:42:45.752Z,5.60
2019-02-24T19:45:15.695Z,4.87
2019-02-24T19:47:44.590Z,5.87
2019-02-24T19:50:15.088Z,5.13
2019-02-24T19:52:43.889Z,5.67
2019-02-24T19:55:12.873Z,6.70
2019-02-24T19:57:42.830Z,6.30
2019-02-24T20:00:35.465Z,5.40
2019-02-24T20:03:04.255Z,6.13
2019-02-24T20:05:33.136Z,5.93
2019-02-24T20:08:02.087Z,5.10
2019-02-24T20:10:31.168Z,4.97
2019-02-24T20:13:00.956Z,5.23
2019-02-24T20:15:29.862Z,6.27
2019-02-24T20:17:58.650Z,6.10
2019-02-24T20:20:27.584Z,6.60
2019-02-24T20:22:56.414Z,6.30
2019-02-24T20:25:25.420Z,5.90
2019-02-24T20:27:54.411Z,5.80
2019-02-24T20:30:25.329Z,5.20
2019-02-24T20:32:54.195Z,5.60
2019-02-24T20:35:23.149Z,5.60
2019-02-24T20:37:52.002Z,6.23
2019-02-24T20:40:21.071Z,5.60
2019-02-24T20:42:49.997Z,6.90
2019-02-24T20:45:19.461Z,6.20
2019-02-24T20:47:48.348Z,5.90
2019-02-24T20:50:18.570Z,5.93
2019-02-24T20:52:47.625Z,5.47
2019-02-24T20:55:16.691Z,6.00
2019-02-24T20:57:46.252Z,6.60
2019-02-24T21:00:21.358Z,5.83
2019-02-24T21:02:50.387Z,5.40
2019-02-24T21:05:19.903Z,5.50
2019-02-24T21:07:48.815Z,4.77
2019-02-24T21:10:17.733Z,5.00
2019-02-24T21:12:46.616Z,5.73
2019-02-24T21:15:15.761Z,5.50
2019-02-24T21:17:44.554Z,5.90
2019-02-24T21:20:15.910Z,5.30
2019-02-24T21:22:44.800Z,5.00
2019-02-24T21:25:13.604Z,5.00
2019-02-24T21:27:42.461Z,5.40
2019-02-24T21:30:13.294Z,5.30
2019-02-24T21:32:42.166Z,4.63
2019-02-24T21:35:11.146Z,4.40
2019-02-24T21:37:39.992Z,4.70
2019-02-24T21:40:09.679Z,4.77
2019-02-24T21:42:38.564Z,4.87
2019-02-24T21:45:11.575Z,4.60
2019-02-24T21:47:40.453Z,4.83
2019-02-24T21:50:10.349Z,4.30
2019-02-24T21:52:39.141Z,4.30
2019-02-24T21:55:08.080Z,5.07
2019-02-24T21:57:37.021Z,4.37
2019-02-24T22:00:09.293Z,3.83
2019-02-24T22:02:38.068Z,4.20
2019-02-24T22:05:07.421Z,3.87
2019-02-24T22:07:36.308Z,4.00
2019-02-24T22:10:05.669Z,3.53
2019-02-24T22:12:34.436Z,3.57
2019-02-24T22:15:03.346Z,3.93
2019-02-24T22:17:32.147Z,3.67
2019-02-24T22:20:00.904Z,4.27
2019-02-24T22:22:29.700Z,3.50
2019-02-24T22:24:58.474Z,3.73
2019-02-24T22:27:27.304Z,3.37
2019-02-24T22:29:56.087Z,3.10
2019-02-24T22:32:24.843Z,2.77
2019-02-24T22:34:54.112Z,2.60
2019-02-24T22:37:23.075Z,2.90
2019-02-24T22:39:51.836Z,2.87
2019-02-24T22:42:20.604Z,2.60
2019-02-24T22:44:49.360Z,3.30
2019-02-24T22:47:18.136Z,2.90
2019-02-24T22:49:46.891Z,2.57
2019-02-24T22:52:16.632Z,3.37
2019-02-24T22:54:45.391Z,2.10
2019-02-24T22:57:14.156Z,2.30
2019-02-24T22:59:42.920Z,3.13
2019-02-24T23:02:11.840Z,2.43
2019-02-24T23:04:40.601Z,2.27
2019-02-24T23:07:09.365Z,2.37
2019-02-24T23:09:38.200Z,1.83
2019-02-24T23:12:07.240Z,2.40
2019-02-24T23:14:36.118Z,2.90
2019-02-24T23:17:05.033Z,2.90
2019-02-24T23:19:33.809Z,2.60
2019-02-24T23:22:02.588Z,2.63
2019-02-24T23:24:31.378Z,2.30
2019-02-24T23:27:00.135Z,1.80
2019-02-24T23:29:28.912Z,1.70
2019-02-24T23:32:00.074Z,1.97
2019-02-24T23:34:28.838Z,2.80
2019-02-24T23:36:57.639Z,2.10
2019-02-24T23:39:26.428Z,2.00
2019-02-24T23:41:55.203Z,2.13
2019-02-24T23:44:24.002Z,2.43
2019-02-24T23:46:52.797Z,2.40
2019-02-24T23:49:21.564Z,2.23
2019-02-24T23:51:50.391Z,2.53
2019-02-24T23:54:19.160Z,2.30
2019-02-24T23:56:47.921Z,2.43
2019-02-24T23:59:16.693Z,2.80
